sensor_id;sensor_type;location;lat;lon;timestamp;pressure;altitude;pressure_sealevel;temperature;humidity
9229;BME280;4649;42.644;23.284;2023-07-31T00:00:15;92800.88;;;21.12;96.50
9229;BME280;4649;42.644;23.284;2023-07-31T00:02:43;92722.31;;;20.53;96.98
9229;BME280;4649;42.644;23.284;2023-07-31T00:05:15;92821.50;;;21.03;96.41
9229;BME280;4649;42.644;23.284;2023-07-31T00:07:44;92636.81;;;19.76;97.71
9229;BME280;4649;42.644;23.284;2023-07-31T00:10:12;92741.38;;;20.58;96.74
9229;BME280;4649;42.644;23.284;2023-07-31T00:12:45;92806.78;;;21.08;96.95
9229;BME280;4649;42.644;23.284;2023-07-31T00:15:14;92812.22;;;21.16;96.43
9229;BME280;4649;42.644;23.284;2023-07-31T00:17:41;92827.50;;;21.09;97.45
9229;BME280;4649;42.644;23.284;2023-07-31T00:20:09;92753.03;;;20.66;96.77
9229;BME280;4649;42.644;23.284;2023-07-31T00:22:37;92802.28;;;20.96;96.33
9229;BME280;4649;42.644;23.284;2023-07-31T00:25:04;92768.38;;;20.69;96.38
9229;BME280;4649;42.644;23.284;2023-07-31T00:27:35;92672.09;;;20.11;98.19
9229;BME280;4649;42.644;23.284;2023-07-31T00:30:09;92792.03;;;20.96;93.82
9229;BME280;4649;42.644;23.284;2023-07-31T00:32:36;92745.06;;;20.78;94.37
9229;BME280;4649;42.644;23.284;2023-07-31T00:35:05;92634.41;;;20.04;97.44
9229;BME280;4649;42.644;23.284;2023-07-31T00:37:32;92680.97;;;20.26;96.91
9229;BME280;4649;42.644;23.284;2023-07-31T00:39:59;92717.84;;;20.65;98.16
9229;BME280;4649;42.644;23.284;2023-07-31T00:42:29;92667.56;;;20.30;97.77
9229;BME280;4649;42.644;23.284;2023-07-31T00:44:56;92770.16;;;20.82;98.36
9229;BME280;4649;42.644;23.284;2023-07-31T00:47:27;92737.72;;;20.56;98.44
9229;BME280;4649;42.644;23.284;2023-07-31T00:49:54;92787.81;;;20.95;96.74
9229;BME280;4649;42.644;23.284;2023-07-31T00:52:22;92736.91;;;20.63;96.19
9229;BME280;4649;42.644;23.284;2023-07-31T00:54:50;92625.78;;;19.83;97.24
9229;BME280;4649;42.644;23.284;2023-07-31T00:57:20;92713.97;;;20.43;98.31
9229;BME280;4649;42.644;23.284;2023-07-31T00:59:49;92783.72;;;20.80;99.13
9229;BME280;4649;42.644;23.284;2023-07-31T01:02:16;92780.06;;;20.77;98.79
9229;BME280;4649;42.644;23.284;2023-07-31T01:04:46;92563.56;;;19.30;98.75
9229;BME280;4649;42.644;23.284;2023-07-31T01:07:19;92691.81;;;20.17;98.99
9229;BME280;4649;42.644;23.284;2023-07-31T01:09:56;92653.53;;;19.95;98.93
9229;BME280;4649;42.644;23.284;2023-07-31T01:12:27;92636.50;;;19.64;100.00
9229;BME280;4649;42.644;23.284;2023-07-31T01:15:18;92770.47;;;20.61;100.00
9229;BME280;4649;42.644;23.284;2023-07-31T01:18:04;92735.09;;;20.41;100.00
9229;BME280;4649;42.644;23.284;2023-07-31T01:20:35;92586.59;;;19.27;100.00
9229;BME280;4649;42.644;23.284;2023-07-31T01:26:18;92645.09;;;19.68;100.00
9229;BME280;4649;42.644;23.284;2023-07-31T01:28:55;92718.63;;;20.09;100.00
9229;BME280;4649;42.644;23.284;2023-07-31T01:31:24;92767.84;;;20.46;100.00
9229;BME280;4649;42.644;23.284;2023-07-31T01:33:56;92768.06;;;20.41;100.00
9229;BME280;4649;42.644;23.284;2023-07-31T01:36:26;92676.75;;;19.69;100.00
9229;BME280;4649;42.644;23.284;2023-07-31T01:38:58;92740.34;;;19.90;100.00
9229;BME280;4649;42.644;23.284;2023-07-31T01:41:33;92756.84;;;20.22;100.00
9229;BME280;4649;42.644;23.284;2023-07-31T01:44:06;92759.34;;;20.27;100.00
9229;BME280;4649;42.644;23.284;2023-07-31T01:46:51;92754.56;;;20.35;100.00
9229;BME280;4649;42.644;23.284;2023-07-31T01:59:51;92637.06;;;19.39;100.00
9229;BME280;4649;42.644;23.284;2023-07-31T06:14:24;92823.91;;;25.55;67.82
9229;BME280;4649;42.644;23.284;2023-07-31T06:16:58;92865.44;;;25.85;64.16
9229;BME280;4649;42.644;23.284;2023-07-31T06:19:33;92853.47;;;25.62;64.94
9229;BME280;4649;42.644;23.284;2023-07-31T06:27:48;92861.63;;;26.11;60.94
9229;BME280;4649;42.644;23.284;2023-07-31T06:47:46;92868.16;;;25.43;62.73
9229;BME280;4649;42.644;23.284;2023-07-31T06:50:29;92849.56;;;25.34;62.85
9229;BME280;4649;42.644;23.284;2023-07-31T06:53:22;92800.38;;;25.35;62.30
9229;BME280;4649;42.644;23.284;2023-07-31T23:42:08;92864.78;;;21.27;78.60
9229;BME280;4649;42.644;23.284;2023-07-31T23:44:36;92756.28;;;20.48;79.51
9229;BME280;4649;42.644;23.284;2023-07-31T23:47:03;92739.41;;;20.27;82.50
9229;BME280;4649;42.644;23.284;2023-07-31T23:49:30;92717.34;;;20.10;80.18
9229;BME280;4649;42.644;23.284;2023-07-31T23:51:57;92796.78;;;20.47;81.21
9229;BME280;4649;42.644;23.284;2023-07-31T23:54:25;92785.19;;;20.32;80.97
9229;BME280;4649;42.644;23.284;2023-07-31T23:56:52;92683.00;;;19.62;80.56
9229;BME280;4649;42.644;23.284;2023-07-31T23:59:21;92653.50;;;19.39;83.17
